WetterOnline ( http://www.wetteronline.de )

Wetter aktuell Bremervörde

Aktuelles Wetter: Bremervörde (5m)

6-stündlich | Neueste Meldungen
Ortszeit Temperatur Wetter
So, 18.11. 13:00 4.9° C leicht bewölkt
So, 18.11. 7:00 -2.5° C wolkig
So, 18.11. 1:00 0.3° C wolkenlos
Sa, 17.11. 19:00 2.7° C leicht bewölkt
Sa, 17.11. 13:00 5.2° C wolkenlos
Sa, 17.11. 7:00 1.3° C wolkenlos
Sa, 17.11. 1:00 3.2° C wolkenlos
Fr, 16.11. 19:00 5.0° C wolkenlos
Ortszeit Temperatur Wetter
So, 18.11. 14:30 6.6° C wolkig
So, 18.11. 14:20 6.6° C wolkig
So, 18.11. 14:10 6.3° C leicht bewölkt
So, 18.11. 14:00 6.2° C fast wolkenlos
So, 18.11. 13:50 6.2° C fast wolkenlos
So, 18.11. 13:40 6.0° C wolkenlos
So, 18.11. 13:30 5.6° C leicht bewölkt
So, 18.11. 13:00 4.9° C leicht bewölkt
So, 18.11. 12:30 4.5° C leicht bewölkt
So, 18.11. 12:00 3.2° C fast wolkenlos
So, 18.11. 11:30 1.7° C bedeckt
Ortszeit Relative Feuchte Sichtweite
So, 18.11. 13:00 79% 5.0 km
So, 18.11. 7:00 94% 3.1 km
So, 18.11. 1:00 81% 8 km
Sa, 17.11. 19:00 76% 8 km
Sa, 17.11. 13:00 76% 8 km
Sa, 17.11. 7:00 88% 5.0 km
Sa, 17.11. 1:00 82% 11 km
Fr, 16.11. 19:00 81% 7 km
Ortszeit Relative Feuchte Sichtweite
So, 18.11. 14:30 78% 6 km
So, 18.11. 14:20 78% -
So, 18.11. 14:10 78% -
So, 18.11. 14:00 78% 5.0 km
So, 18.11. 13:50 78% -
So, 18.11. 13:40 78% -
So, 18.11. 13:30 79% 5.0 km
So, 18.11. 13:00 79% 5.0 km
So, 18.11. 12:30 76% 6 km
So, 18.11. 12:00 74% 6 km
So, 18.11. 11:30 79% 5.0 km
Ortszeit Niederschlagsmenge Niederschlagsart
So, 18.11. 13:00 0.0 l/m2 in 6 Std. -
So, 18.11. 7:00 0.0 l/m2 in 12 Std. -
So, 18.11. 1:00 0.0 l/m2 in 6 Std. -
Sa, 17.11. 19:00 0.0 l/m2 in 12 Std. -
Sa, 17.11. 13:00 0.0 l/m2 in 6 Std. -
Sa, 17.11. 7:00 0.0 l/m2 in 12 Std. -
Sa, 17.11. 1:00 0.0 l/m2 in 6 Std. -
Fr, 16.11. 19:00 0.0 l/m2 in 12 Std. -
Ortszeit Niederschlagsmenge Niederschlagsart
So, 18.11. 14:30 0.0 l/m2 in 1 Std. -
So, 18.11. 14:20 keine Meldung -
So, 18.11. 14:10 keine Meldung -
So, 18.11. 14:00 0.0 l/m2 in 1 Std. -
So, 18.11. 13:50 keine Meldung -
So, 18.11. 13:40 keine Meldung -
So, 18.11. 13:30 0.0 l/m2 in 1 Std. -
So, 18.11. 13:00 0.0 l/m2 in 1 Std. -
So, 18.11. 12:30 0.0 l/m2 in 1 Std. -
So, 18.11. 12:00 0.0 l/m2 in 1 Std. -
So, 18.11. 11:30 0.0 l/m2 in 1 Std. -
Ortszeit Stärke Spitze Richtung
km/h Bft. km/h Grad Sektor
So, 18.11. 13:00 14 3 18 50° NO
So, 18.11. 7:00 7 2 11 30° NO
So, 18.11. 1:00 7 2 18 80° O
Sa, 17.11. 19:00 11 2 22 90° O
Sa, 17.11. 13:00 11 2 25 80° O
Sa, 17.11. 7:00 13 3 22 110° O
Sa, 17.11. 1:00 9 2 20 120° SO
Fr, 16.11. 19:00 7 2 29 100° O
Ortszeit Stärke Spitze Richtung
km/h Bft. km/h Grad Sektor
So, 18.11. 14:30 11 2 18 70° O
So, 18.11. 14:20 11 2 - 70° O
So, 18.11. 14:10 11 2 - 60° NO
So, 18.11. 14:00 13 3 22 60° NO
So, 18.11. 13:50 13 3 - 60° NO
So, 18.11. 13:40 15 3 - 60° NO
So, 18.11. 13:30 13 3 19 60° NO
So, 18.11. 13:00 14 3 18 50° NO
So, 18.11. 12:30 11 2 18 40° NO
So, 18.11. 12:00 9 2 13 40° NO
So, 18.11. 11:30 9 2 13 40° NO
Ortszeit Untergrenze Bedeckung Gattung
total tief tief mittel hoch
So, 18.11. 13:00 330 m 4/8 4/8 - - -
So, 18.11. 7:00 8400 m 8/8 0/8 - - -
So, 18.11. 1:00 - 0/8 0/8 - - -
Sa, 17.11. 19:00 6900 m 4/8 2/8 - - -
Sa, 17.11. 13:00 - 0/8 0/8 - - -
Sa, 17.11. 7:00 - 0/8 0/8 - - -
Sa, 17.11. 1:00 - 0/8 0/8 - - -
Fr, 16.11. 19:00 - 0/8 0/8 - - -
Ortszeit Bedeckungsgrad in Achtel und Wolkenuntergrenze
So, 18.11. 14:30 2(540m) 4(660m) 7(9000m)
So, 18.11. 14:20 2(540m) 4(660m) 7(9000m)
So, 18.11. 14:10 1(510m) 5(9000m) 6(9000m)
So, 18.11. 14:00 2(9000m) 2(9000m) 3(9000m)
So, 18.11. 13:50 2(9000m)
So, 18.11. 13:40 keine Wolken
So, 18.11. 13:30 2(570m)
So, 18.11. 13:00 2(330m) 4(450m)
So, 18.11. 12:30 1(240m) 4(360m)
So, 18.11. 12:00 1(1800m)
So, 18.11. 11:30 8(5400m)
Ortszeit Luftdruck NN (hPa) Tendenz (hPa in 3 Std.)
So, 18.11. 13:00 1034 - 1,5
So, 18.11. 7:00 1035 - 1,2
So, 18.11. 1:00 1037 - 0,2
Sa, 17.11. 19:00 1037 - 0,1
Sa, 17.11. 13:00 1037 0,0
Sa, 17.11. 7:00 1036 + 0,4
Sa, 17.11. 1:00 1035 + 1,3
Fr, 16.11. 19:00 1034 + 0,9
Ortszeit Luftdruck NN (hPa) Tendenz (hPa in 3 Std.)
So, 18.11. 14:30 1032 - 2,7
So, 18.11. 14:20 1032 keine Meldung
So, 18.11. 14:10 1032 keine Meldung
So, 18.11. 14:00 1033 - 2,2
So, 18.11. 13:50 1033 keine Meldung
So, 18.11. 13:40 1033 keine Meldung
So, 18.11. 13:30 1033 - 1,7
So, 18.11. 13:00 1034 - 1,5
So, 18.11. 12:30 1034 - 1,3
So, 18.11. 12:00 1034 - 1,0
So, 18.11. 11:30 1035 - 0,4
Ortszeit Schneehöhe (cm)
So, 18.11. 13:00 0
So, 18.11. 7:00 0
So, 18.11. 1:00 0
Sa, 17.11. 19:00 0
Sa, 17.11. 13:00 0
Sa, 17.11. 7:00 0
Sa, 17.11. 1:00 0
Fr, 16.11. 19:00 0
Ortszeit Schneehöhe (cm)
So, 18.11. 14:30 0
So, 18.11. 14:20 0
So, 18.11. 14:10 0
So, 18.11. 14:00 0
So, 18.11. 13:50 0
So, 18.11. 13:40 0
So, 18.11. 13:30 0
So, 18.11. 13:00 0
So, 18.11. 12:30 0
So, 18.11. 12:00 0
So, 18.11. 11:30 0
Link zu dieser Seite / Seite empfehlen

Das Wetter in ...